Time;durP1;ratioP1;P1;durP2;ratioP2;P2;SDS_P1;SDS_P2;PMS_P1;PMS_P2;Temp;Humidity;BMP_temperature;BMP_pressure;BME280_temperature;BME280_humidity;BME280_pressure;Samples;Min_cycle;Max_cycle;Signal;HPM_P1;HPM_P2
2023/05/02 00:00:50;;;;;;;2.20;1.08;;;9.90;99.90;;;;;;5091898;28;20040;-47
2023/05/02 00:03:17;;;;;;;1.50;1.10;;;9.90;99.90;;;;;;5085106;28;20492;-50
2023/05/02 00:05:44;;;;;;;1.38;0.60;;;9.90;99.90;;;;;;5091966;28;20065;-47
2023/05/02 00:08:11;;;;;;;0.70;0.70;;;9.90;99.90;;;;;;5091787;28;20492;-48
2023/05/02 00:10:38;;;;;;;1.42;0.82;;;9.90;99.90;;;;;;5091701;28;20247;-47
2023/05/02 00:13:05;;;;;;;1.17;0.95;;;9.80;99.90;;;;;;5086809;28;20450;-47
2023/05/02 00:15:31;;;;;;;2.25;1.00;;;9.80;99.90;;;;;;5073701;28;20451;-47
2023/05/02 00:17:59;;;;;;;2.30;0.98;;;9.80;99.90;;;;;;5091873;28;20052;-47
2023/05/02 00:20:26;;;;;;;;;;;9.80;99.90;;;;;;5086395;28;20077;-46
2023/05/02 00:22:54;;;;;;;2.83;0.98;;;9.80;99.90;;;;;;5091398;28;19927;-46
2023/05/02 00:25:20;;;;;;;1.38;0.85;;;9.90;99.90;;;;;;5091860;28;20075;-46
2023/05/02 00:27:49;;;;;;;1.45;0.80;;;9.90;99.90;;;;;;5090865;28;20520;-48
2023/05/02 00:30:17;;;;;;;1.40;1.10;;;9.90;99.90;;;;;;5071521;28;20493;-47
2023/05/02 00:32:44;;;;;;;1.17;0.88;;;9.80;99.90;;;;;;5073233;28;20052;-49
2023/05/02 00:35:10;;;;;;;1.45;0.90;;;9.80;99.90;;;;;;5091726;28;20035;-46
2023/05/02 00:37:38;;;;;;;0.73;0.68;;;9.80;99.90;;;;;;5069796;28;20516;-46
2023/05/02 00:40:06;;;;;;;2.58;0.80;;;9.80;99.90;;;;;;5070703;28;20048;-46
2023/05/02 00:42:34;;;;;;;1.25;0.90;;;9.80;99.90;;;;;;5073134;28;20043;-46
2023/05/02 00:45:05;;;;;;;2.15;0.82;;;9.80;99.90;;;;;;5073606;28;20040;-47
2023/05/02 00:47:32;;;;;;;2.22;0.95;;;9.80;99.90;;;;;;5088219;28;20656;-46
2023/05/02 00:49:59;;;;;;;1.75;0.70;;;9.80;99.90;;;;;;5090958;28;20059;-47
2023/05/02 00:52:27;;;;;;;0.82;0.82;;;9.80;99.90;;;;;;5091530;28;20122;-47
2023/05/02 00:54:54;;;;;;;;;;;9.80;99.90;;;;;;5071663;28;20052;-47
2023/05/02 00:57:21;;;;;;;3.40;0.88;;;9.80;99.90;;;;;;5073291;28;19920;-48
2023/05/02 00:59:49;;;;;;;3.20;0.95;;;9.80;99.90;;;;;;5091098;28;20036;-47
2023/05/02 01:02:31;;;;;;;1.77;0.88;;;9.80;99.90;;;;;;5073296;28;20044;-47
2023/05/02 01:05:03;;;;;;;1.23;0.70;;;9.80;99.90;;;;;;5087439;28;20042;-47
2023/05/02 01:07:49;;;;;;;1.30;0.90;;;9.70;99.90;;;;;;5091285;28;20460;-46
2023/05/02 01:10:49;;;;;;;3.05;0.80;;;9.60;99.90;;;;;;5091198;28;20389;-49
2023/05/02 01:13:30;;;;;;;3.72;1.40;;;9.60;99.90;;;;;;5087264;28;20073;-48
2023/05/02 01:15:59;;;;;;;2.13;0.88;;;9.70;99.90;;;;;;5072990;28;20520;-46
2023/05/02 01:18:31;;;;;;;3.05;1.02;;;9.70;99.90;;;;;;5091042;28;20465;-47
2023/05/02 01:21:05;;;;;;;0.90;0.75;;;9.70;99.90;;;;;;5086670;28;20094;-47
2023/05/02 01:23:47;;;;;;;1.90;0.88;;;9.70;99.90;;;;;;5073129;28;20040;-48
2023/05/02 01:26:23;;;;;;;0.85;0.73;;;9.70;99.90;;;;;;5073139;28;20046;-46
2023/05/02 01:29:07;;;;;;;1.58;0.90;;;9.70;99.90;;;;;;5072549;28;20542;-47
2023/05/02 01:31:37;;;;;;;2.72;0.80;;;9.70;99.90;;;;;;5070401;28;20076;-47
2023/05/02 01:34:08;;;;;;;1.58;0.70;;;9.70;99.90;;;;;;5073008;28;20091;-47
2023/05/02 01:36:41;;;;;;;1.40;0.80;;;9.70;99.90;;;;;;5091097;28;20039;-46
2023/05/02 01:39:10;;;;;;;1.33;0.80;;;9.70;99.90;;;;;;5070930;28;20451;-46
2023/05/02 01:41:39;;;;;;;1.33;0.85;;;9.80;99.90;;;;;;5076839;28;20040;-46
2023/05/02 01:44:07;;;;;;;1.48;0.85;;;9.80;99.90;;;;;;5076984;28;20052;-46
2023/05/02 01:46:38;;;;;;;2.70;1.15;;;9.80;99.90;;;;;;5076820;28;20075;-46
2023/05/02 01:49:06;;;;;;;3.83;0.90;;;9.70;99.90;;;;;;5074772;28;20043;-47
2023/05/02 01:51:39;;;;;;;3.88;0.88;;;9.70;99.90;;;;;;5076499;28;20051;-46
2023/05/02 01:54:07;;;;;;;1.85;1.02;;;9.70;99.90;;;;;;5076681;28;20051;-46
2023/05/02 01:56:37;;;;;;;2.25;1.10;;;9.70;99.90;;;;;;5075383;28;20492;-46
2023/05/02 01:59:07;;;;;;;1.38;1.02;;;9.70;99.90;;;;;;5075695;28;20055;-47
2023/05/02 02:01:36;;;;;;;2.35;0.80;;;9.70;99.90;;;;;;5094622;28;20044;-46
2023/05/02 02:04:06;;;;;;;4.10;1.02;;;9.70;99.90;;;;;;5073575;28;20045;-46
2023/05/02 02:06:33;;;;;;;2.22;1.20;;;9.70;99.90;;;;;;5076307;28;20044;-46
2023/05/02 02:09:00;;;;;;;2.30;1.08;;;9.70;99.90;;;;;;5075920;28;20051;-48
2023/05/02 02:11:44;;;;;;;1.52;0.93;;;9.70;99.90;;;;;;5091016;28;20451;-47
2023/05/02 02:14:18;;;;;;;1.23;0.90;;;9.70;99.90;;;;;;5074901;28;20044;-47
2023/05/02 02:16:46;;;;;;;5.40;1.30;;;9.70;99.90;;;;;;5076320;28;20072;-46
2023/05/02 02:19:14;;;;;;;4.28;1.30;;;9.70;99.90;;;;;;5074676;28;20043;-47
2023/05/02 02:21:46;;;;;;;5.70;1.60;;;9.70;99.90;;;;;;5076239;28;20036;-47
2023/05/02 02:24:25;;;;;;;1.58;1.00;;;9.70;99.90;;;;;;5094144;28;20059;-46
2023/05/02 02:26:53;;;;;;;2.30;1.20;;;9.70;99.90;;;;;;5076168;28;20500;-46
2023/05/02 02:29:19;;;;;;;1.33;0.70;;;9.70;99.90;;;;;;5070114;28;20039;-46
2023/05/02 02:31:46;;;;;;;2.45;0.90;;;9.60;99.90;;;;;;5093990;28;20404;-48
2023/05/02 02:34:13;;;;;;;2.90;0.85;;;9.60;99.90;;;;;;5075916;28;20032;-46
2023/05/02 02:37:07;;;;;;;1.23;0.95;;;9.60;99.90;;;;;;5072129;28;20087;-46
2023/05/02 02:39:57;;;;;;;1.05;0.80;;;9.70;99.90;;;;;;5069442;28;20036;-50
2023/05/02 02:42:51;;;;;;;2.40;0.90;;;9.60;99.90;;;;;;5075709;28;20044;-48
2023/05/02 02:45:59;;;;;;;4.30;0.85;;;9.60;99.90;;;;;;5093690;28;20496;-49
2023/05/02 02:48:36;;;;;;;3.20;1.63;;;9.70;99.90;;;;;;4994857;28;20046;-47
2023/05/02 02:51:19;;;;;;;1.50;0.80;;;9.70;99.90;;;;;;5101387;22;20101;-46
2023/05/02 02:54:19;;;;;;;2.17;0.90;;;9.60;99.90;;;;;;5113579;28;20075;-46
2023/05/02 02:57:15;;;;;;;2.22;0.75;;;9.60;99.90;;;;;;5109360;28;20072;-46
2023/05/02 02:59:50;;;;;;;3.95;0.70;;;9.60;99.90;;;;;;5100255;28;20078;-46
2023/05/02 03:02:18;;;;;;;2.13;0.93;;;9.60;99.90;;;;;;5083541;28;20535;-46
2023/05/02 03:04:46;;;;;;;1.77;1.10;;;9.70;99.90;;;;;;5071231;28;20044;-46
2023/05/02 03:07:13;;;;;;;3.38;0.98;;;9.70;99.90;;;;;;5104007;28;20036;-46
2023/05/02 03:09:45;;;;;;;1.48;0.90;;;9.70;99.90;;;;;;5095116;28;20055;-46
2023/05/02 03:12:16;;;;;;;2.93;1.10;;;9.70;99.90;;;;;;5092748;28;20112;-47
2023/05/02 03:14:44;;;;;;;1.73;1.35;;;9.70;99.90;;;;;;5083241;28;20040;-47
2023/05/02 03:17:11;;;;;;;4.53;1.60;;;9.70;99.90;;;;;;5094330;28;20078;-47
2023/05/02 03:19:37;;;;;;;2.40;1.40;;;9.70;99.90;;;;;;5095029;28;20484;-46
2023/05/02 03:22:05;;;;;;;6.47;1.30;;;9.80;99.90;;;;;;5079351;28;20047;-46
2023/05/02 03:24:34;;;;;;;1.05;0.90;;;9.70;99.90;;;;;;5074678;28;20047;-46
2023/05/02 03:27:02;;;;;;;1.02;0.82;;;9.70;99.90;;;;;;5066525;28;20050;-46
2023/05/02 03:29:34;;;;;;;1.30;0.68;;;9.70;99.90;;;;;;5068755;28;20044;-46
2023/05/02 03:32:01;;;;;;;;;;;9.70;99.90;;;;;;5063922;28;20501;-46
2023/05/02 03:34:28;;;;;;;1.50;0.70;;;9.70;99.90;;;;;;5065779;28;19920;-46
2023/05/02 03:36:56;;;;;;;2.63;0.80;;;9.70;99.90;;;;;;5067844;28;20052;-47
2023/05/02 03:39:22;;;;;;;0.75;0.57;;;9.70;99.90;;;;;;5065001;28;21023;-46
2023/05/02 03:41:50;;;;;;;;;;;9.70;99.90;;;;;;5083890;28;20511;-46
2023/05/02 03:44:20;;;;;;;4.65;1.00;;;9.70;99.90;;;;;;5072192;28;19920;-46
2023/05/02 03:46:47;;;;;;;4.15;1.40;;;9.70;99.90;;;;;;5092548;28;20041;-46
2023/05/02 03:49:14;;;;;;;7.95;2.10;;;9.70;99.90;;;;;;5071911;28;20055;-46
2023/05/02 03:51:43;;;;;;;4.88;2.20;;;9.70;99.90;;;;;;5072590;22;20033;-46
2023/05/02 03:54:11;;;;;;;4.47;2.00;;;9.70;99.90;;;;;;5050279;28;20041;-47
2023/05/02 03:56:41;;;;;;;5.38;2.75;;;9.70;99.90;;;;;;5049858;28;20068;-46
2023/05/02 03:59:21;;;;;;;6.22;3.97;;;9.70;99.90;;;;;;5065148;28;20132;-46
2023/05/02 04:01:49;;;;;;;8.88;4.32;;;9.70;99.90;;;;;;5047418;28;20071;-46
2023/05/02 04:04:18;;;;;;;9.38;4.45;;;9.70;99.90;;;;;;5041161;28;20504;-46
2023/05/02 04:06:49;;;;;;;9.63;5.00;;;9.80;99.90;;;;;;5047739;28;20041;-47
2023/05/02 04:09:16;;;;;;;6.70;3.63;;;9.80;99.90;;;;;;5044817;28;20052;-46
2023/05/02 04:11:50;;;;;;;2.05;1.30;;;9.80;99.90;;;;;;5044338;28;20049;-46
2023/05/02 04:14:17;;;;;;;4.20;1.50;;;9.70;99.90;;;;;;5051530;28;20520;-46
2023/05/02 04:16:49;;;;;;;3.88;1.45;;;9.70;99.90;;;;;;5066485;28;20044;-46
2023/05/02 04:19:21;;;;;;;1.48;1.38;;;9.70;99.90;;;;;;5044988;28;20048;-46
2023/05/02 04:21:48;;;;;;;3.65;1.48;;;9.70;99.90;;;;;;5051419;28;20079;-46
2023/05/02 04:24:15;;;;;;;6.22;2.30;;;9.70;99.90;;;;;;5048233;28;20059;-46
2023/05/02 04:26:43;;;;;;;4.55;2.92;;;9.60;99.90;;;;;;5049764;28;20059;-46
2023/05/02 04:29:12;;;;;;;4.75;2.45;;;9.70;99.90;;;;;;5041350;28;20049;-47
2023/05/02 04:31:41;;;;;;;2.13;1.30;;;9.70;99.90;;;;;;5049466;28;20068;-46
2023/05/02 04:34:09;;;;;;;5.72;1.55;;;9.70;99.90;;;;;;5050162;28;20047;-46
2023/05/02 04:36:45;;;;;;;5.85;1.52;;;9.70;99.90;;;;;;5049575;28;20052;-46
2023/05/02 04:39:17;;;;;;;2.42;1.60;;;9.70;99.90;;;;;;5037274;28;20038;-46
2023/05/02 04:41:54;;;;;;;4.00;1.73;;;9.70;99.90;;;;;;5046506;28;20414;-46
2023/05/02 04:44:23;;;;;;;2.95;2.20;;;9.70;99.90;;;;;;5040589;28;20564;-47
2023/05/02 04:46:50;;;;;;;5.07;2.40;;;9.70;99.90;;;;;;5065622;28;20049;-46
2023/05/02 04:49:18;;;;;;;4.80;2.20;;;9.70;99.90;;;;;;5029639;28;20050;-46
2023/05/02 04:51:44;;;;;;;6.28;2.38;;;9.70;99.90;;;;;;5029897;28;20466;-46
2023/05/02 04:54:12;;;;;;;3.75;2.75;;;9.70;99.90;;;;;;5037747;28;20048;-46
2023/05/02 04:56:41;;;;;;;5.20;3.17;;;9.80;99.90;;;;;;5057835;28;20048;-45
2023/05/02 04:59:09;;;;;;;6.70;3.95;;;9.80;99.90;;;;;;5048942;28;20048;-46
2023/05/02 05:01:36;;;;;;;11.68;4.95;;;9.80;99.90;;;;;;5048304;28;20037;-45
2023/05/02 05:04:03;;;;;;;;;;;9.80;99.90;;;;;;5056467;28;20042;-46
2023/05/02 05:06:30;;;;;;;13.60;5.63;;;9.90;99.90;;;;;;5046021;28;20382;-45
2023/05/02 05:08:58;;;;;;;9.75;6.15;;;9.90;99.90;;;;;;5029271;28;20042;-46
2023/05/02 05:11:25;;;;;;;8.27;4.82;;;9.90;99.90;;;;;;5043627;28;20046;-45
2023/05/02 05:13:52;;;;;;;6.65;3.90;;;9.90;99.90;;;;;;5045933;28;20525;-45
2023/05/02 05:16:19;;;;;;;6.88;3.90;;;9.90;99.90;;;;;;5049679;28;20049;-45
2023/05/02 05:18:48;;;;;;;5.60;3.92;;;9.90;99.90;;;;;;5038786;28;20045;-47
2023/05/02 05:21:15;;;;;;;8.18;4.35;;;9.90;99.90;;;;;;5051305;28;20045;-46
2023/05/02 05:23:44;;;;;;;8.27;4.85;;;9.90;99.90;;;;;;5041887;28;20475;-45
2023/05/02 05:26:15;;;;;;;9.00;5.45;;;10.00;99.90;;;;;;5048725;28;20037;-45
2023/05/02 05:28:45;;;;;;;8.57;5.72;;;10.00;99.90;;;;;;5033255;28;20049;-46
2023/05/02 05:31:16;;;;;;;;;;;10.00;99.90;;;;;;5033886;28;20525;-46
2023/05/02 05:33:46;;;;;;;13.63;7.57;;;10.00;99.90;;;;;;5033151;28;19921;-46
2023/05/02 05:36:14;;;;;;;;;;;10.00;99.90;;;;;;5047381;28;20057;-47
2023/05/02 05:38:41;;;;;;;16.77;7.43;;;10.00;99.90;;;;;;5048021;28;19929;-47
2023/05/02 05:41:10;;;;;;;15.35;7.18;;;10.00;99.90;;;;;;5053496;28;20041;-46
2023/05/02 05:43:40;;;;;;;13.00;7.68;;;10.00;99.90;;;;;;5052557;28;20045;-46
2023/05/02 05:46:07;;;;;;;;;;;10.10;99.90;;;;;;5045564;28;20075;-46
2023/05/02 05:48:36;;;;;;;15.85;7.40;;;10.10;99.90;;;;;;5069504;28;20270;-46
2023/05/02 05:51:06;;;;;;;14.55;7.93;;;10.10;99.90;;;;;;5052493;28;20523;-47
2023/05/02 05:53:33;;;;;;;12.82;5.38;;;10.10;99.90;;;;;;5047693;28;20048;-46
2023/05/02 05:56:12;;;;;;;8.50;4.95;;;10.10;99.90;;;;;;5050200;28;20052;-46
2023/05/02 05:58:44;;;;;;;11.05;6.07;;;10.10;99.90;;;;;;5052337;28;20036;-46
2023/05/02 06:01:13;;;;;;;6.60;4.63;;;10.10;99.90;;;;;;5051837;28;20091;-46
2023/05/02 06:03:40;;;;;;;8.23;3.83;;;10.10;99.90;;;;;;5031303;28;20045;-46
2023/05/02 06:06:07;;;;;;;6.45;3.85;;;10.00;99.90;;;;;;5049447;28;20053;-45
2023/05/02 06:08:34;;;;;;;3.70;2.70;;;10.00;99.90;;;;;;5021422;28;20485;-46
2023/05/02 06:11:04;;;;;;;4.93;2.33;;;10.00;99.90;;;;;;5045751;28;20045;-46
2023/05/02 06:13:30;;;;;;;3.65;2.05;;;10.00;99.90;;;;;;5052824;28;20049;-46
2023/05/02 06:16:00;;;;;;;3.22;2.05;;;10.00;99.90;;;;;;5052882;28;20127;-46
2023/05/02 06:18:28;;;;;;;4.47;2.53;;;10.00;99.90;;;;;;5051476;28;20067;-46
2023/05/02 06:20:55;;;;;;;4.95;3.38;;;10.00;99.90;;;;;;5061094;28;20098;-46
2023/05/02 06:23:22;;;;;;;6.45;3.20;;;10.10;99.90;;;;;;5053907;28;20418;-46
2023/05/02 06:25:49;;;;;;;8.27;3.95;;;10.20;99.90;;;;;;5068140;28;20045;-46
2023/05/02 06:28:15;;;;;;;8.98;3.90;;;10.20;99.90;;;;;;5052897;28;20045;-46
2023/05/02 06:30:42;;;;;;;5.80;3.60;;;10.20;99.90;;;;;;5045251;28;20064;-46
2023/05/02 06:33:11;;;;;;;9.43;4.72;;;10.20;99.90;;;;;;5053842;28;20049;-47
2023/05/02 06:35:37;;;;;;;8.65;4.88;;;10.20;99.90;;;;;;5053751;28;20041;-45
2023/05/02 06:38:04;;;;;;;9.75;5.35;;;10.20;99.90;;;;;;5051105;28;20037;-45
2023/05/02 06:40:35;;;;;;;6.63;4.38;;;10.20;99.90;;;;;;5047018;28;20124;-46
2023/05/02 06:43:02;;;;;;;14.90;7.07;;;10.20;99.90;;;;;;5053474;28;20048;-45
2023/05/02 06:45:28;;;;;;;12.27;7.07;;;10.30;99.90;;;;;;5052969;28;20064;-46
2023/05/02 06:47:55;;;;;;;12.38;6.18;;;10.20;99.90;;;;;;5045160;28;20095;-46
2023/05/02 06:50:22;;;;;;;9.18;6.43;;;10.20;99.90;;;;;;5052814;28;20118;-45
2023/05/02 06:52:49;;;;;;;10.48;6.47;;;10.30;99.90;;;;;;5053628;28;20439;-46
2023/05/02 06:55:15;;;;;;;10.85;6.25;;;10.30;99.90;;;;;;5048925;28;20850;-46
2023/05/02 06:57:42;;;;;;;5.93;4.00;;;10.40;99.90;;;;;;5048559;28;20102;-46
2023/05/02 07:00:09;;;;;;;5.72;4.47;;;10.40;99.90;;;;;;5052697;28;20098;-45
2023/05/02 07:02:36;;;;;;;7.35;4.90;;;10.50;99.90;;;;;;5052907;28;20048;-46
2023/05/02 07:05:03;;;;;;;10.93;5.60;;;10.60;99.90;;;;;;5044589;28;20076;-46
2023/05/02 07:07:30;;;;;;;5.65;4.45;;;10.80;99.90;;;;;;5053509;28;20390;-46
2023/05/02 07:09:57;;;;;;;5.43;4.00;;;10.90;99.90;;;;;;5052060;28;20044;-46
2023/05/02 07:12:25;;;;;;;7.15;3.28;;;11.00;99.90;;;;;;5045166;28;20452;-46
2023/05/02 07:14:51;;;;;;;7.60;3.92;;;11.10;99.90;;;;;;5053036;28;20041;-46
2023/05/02 07:17:18;;;;;;;5.85;3.72;;;11.00;99.90;;;;;;5052903;28;20037;-46
2023/05/02 07:19:45;;;;;;;3.90;3.08;;;11.20;99.90;;;;;;5051783;28;20057;-46
2023/05/02 07:22:12;;;;;;;5.97;3.63;;;11.20;99.90;;;;;;5044508;28;20103;-46
2023/05/02 07:24:40;;;;;;;6.40;3.60;;;11.30;99.90;;;;;;5052735;28;20041;-46
2023/05/02 07:27:11;;;;;;;4.78;3.38;;;11.30;99.90;;;;;;5052021;28;20044;-46
2023/05/02 07:29:38;;;;;;;4.07;3.20;;;11.30;99.90;;;;;;5045592;28;20520;-47
2023/05/02 07:32:05;;;;;;;4.68;3.30;;;11.40;99.90;;;;;;5051068;28;20064;-45
2023/05/02 07:34:32;;;;;;;4.55;3.10;;;11.50;99.90;;;;;;5052558;28;20493;-46
2023/05/02 07:36:59;;;;;;;6.15;4.50;;;11.60;99.90;;;;;;5050375;28;20072;-46
2023/05/02 07:39:25;;;;;;;8.00;5.43;;;11.70;99.90;;;;;;5039061;28;20612;-46
2023/05/02 07:41:53;;;;;;;11.65;5.10;;;11.80;99.90;;;;;;5032491;28;20448;-46
2023/05/02 07:44:20;;;;;;;7.30;4.07;;;11.70;99.90;;;;;;5032429;28;20461;-46
2023/05/02 07:46:47;;;;;;;;;;;11.70;99.90;;;;;;5047064;28;20398;-45
2023/05/02 07:49:14;;;;;;;5.85;3.42;;;11.70;99.90;;;;;;5043397;28;19960;-46
2023/05/02 07:51:41;;;;;;;5.95;3.40;;;11.80;99.90;;;;;;5052000;28;20041;-46
2023/05/02 07:54:34;;;;;;;6.30;3.00;;;12.00;99.90;;;;;;5051513;28;20064;-46
2023/05/02 07:57:02;;;;;;;6.13;3.10;;;12.10;99.90;;;;;;5041674;28;20061;-46
2023/05/02 07:59:30;;;;;;;5.80;3.10;;;12.20;99.90;;;;;;5051546;28;20055;-46
2023/05/02 08:01:57;;;;;;;5.35;3.30;;;12.30;99.90;;;;;;5050034;28;20033;-46
2023/05/02 08:04:24;;;;;;;5.50;3.40;;;12.30;99.90;;;;;;5050489;28;20076;-46
2023/05/02 08:06:51;;;;;;;7.60;3.67;;;12.30;99.90;;;;;;5051188;28;20119;-46
2023/05/02 08:09:18;;;;;;;7.00;4.38;;;12.30;99.90;;;;;;5051614;28;20041;-46
2023/05/02 08:11:45;;;;;;;5.82;4.38;;;12.40;99.90;;;;;;5042832;28;20060;-46
2023/05/02 08:14:12;;;;;;;7.93;4.43;;;12.40;99.90;;;;;;5051105;28;20102;-46
2023/05/02 08:16:39;;;;;;;6.07;4.18;;;12.40;99.90;;;;;;5051708;28;20139;-46
2023/05/02 08:19:06;;;;;;;10.57;4.65;;;12.30;99.90;;;;;;5065604;28;20555;-46
2023/05/02 08:21:33;;;;;;;5.68;3.85;;;12.40;99.90;;;;;;5043293;28;20037;-46
2023/05/02 08:24:00;;;;;;;8.65;4.25;;;12.60;99.90;;;;;;5051870;28;20094;-46
2023/05/02 08:26:27;;;;;;;8.93;4.20;;;12.80;99.90;;;;;;5050615;28;20069;-46
2023/05/02 08:28:54;;;;;;;6.85;4.03;;;13.00;99.90;;;;;;5042918;28;20449;-46
2023/05/02 08:31:21;;;;;;;5.95;4.43;;;13.10;99.90;;;;;;5051463;28;20520;-46
2023/05/02 08:33:48;;;;;;;7.78;4.53;;;13.20;99.90;;;;;;5051885;28;20053;-46
2023/05/02 08:36:16;;;;;;;6.05;3.90;;;13.40;99.90;;;;;;5047300;28;20107;-46
2023/05/02 08:38:44;;;;;;;6.88;4.70;;;13.70;99.90;;;;;;5046422;28;20128;-45
2023/05/02 08:41:12;;;;;;;7.40;4.68;;;14.00;99.90;;;;;;5051683;28;20041;-46
2023/05/02 08:43:39;;;;;;;5.32;3.33;;;14.20;99.90;;;;;;5051161;28;20470;-46
2023/05/02 08:46:07;;;;;;;6.55;2.90;;;14.50;99.90;;;;;;5042680;28;20057;-46
2023/05/02 08:48:40;;;;;;;3.85;2.30;;;14.60;99.90;;;;;;5050466;28;20071;-46
2023/05/02 08:51:57;;;;;;;2.60;2.22;;;14.50;99.90;;;;;;5094531;22;20068;-47
2023/05/02 08:54:25;;;;;;;2.90;2.38;;;14.60;99.90;;;;;;5109116;28;20065;-47
2023/05/02 08:56:56;;;;;;;2.50;2.22;;;14.70;99.90;;;;;;5111852;28;20084;-45
2023/05/02 08:59:22;;;;;;;2.00;1.80;;;14.80;99.90;;;;;;5111678;28;20073;-47
2023/05/02 09:01:54;;;;;;;4.25;1.75;;;14.80;99.90;;;;;;5091024;28;20060;-48
2023/05/02 09:04:24;;;;;;;2.88;2.03;;;14.80;99.90;;;;;;5083712;28;20044;-51
2023/05/02 09:06:51;;;;;;;2.00;1.80;;;14.90;99.90;;;;;;5073247;28;20389;-46
2023/05/02 09:09:18;;;;;;;;;;;14.90;99.90;;;;;;5091375;28;20059;-47
2023/05/02 09:11:46;;;;;;;2.83;2.50;;;15.00;99.90;;;;;;5081402;28;19924;-47
2023/05/02 09:14:14;;;;;;;2.40;1.88;;;15.00;99.90;;;;;;5090850;28;20044;-47
2023/05/02 09:16:42;;;;;;;3.83;2.17;;;15.00;99.90;;;;;;5091095;28;20040;-45
2023/05/02 09:19:09;;;;;;;3.55;2.47;;;15.00;99.90;;;;;;5088803;28;20058;-44
2023/05/02 09:21:41;;;;;;;2.83;2.38;;;15.00;99.90;;;;;;5079120;28;20044;-46
2023/05/02 09:24:34;;;;;;;2.40;2.20;;;14.90;99.90;;;;;;5090326;28;20039;-46
2023/05/02 09:27:03;;;;;;;2.63;2.20;;;14.90;99.90;;;;;;5085014;28;20080;-46
2023/05/02 09:29:34;;;;;;;4.68;2.22;;;15.00;99.90;;;;;;5082444;28;20101;-47
2023/05/02 09:32:03;;;;;;;3.10;2.60;;;15.20;99.90;;;;;;5091072;28;20551;-47
2023/05/02 09:34:30;;;;;;;3.35;2.42;;;15.40;99.90;;;;;;5091201;28;20036;-46
2023/05/02 09:36:57;;;;;;;4.40;2.95;;;15.40;99.90;;;;;;5086357;28;20036;-47
2023/05/02 09:39:25;;;;;;;5.68;2.97;;;15.40;99.90;;;;;;5083380;28;20516;-46
2023/05/02 09:41:52;;;;;;;3.60;2.55;;;15.40;99.90;;;;;;5090636;28;20040;-47
2023/05/02 09:44:22;;;;;;;3.78;2.70;;;15.50;99.90;;;;;;5085402;28;20051;-47
2023/05/02 09:46:52;;;;;;;4.32;2.70;;;15.70;99.90;;;;;;5082400;28;20047;-44
2023/05/02 09:49:37;;;;;;;3.85;3.13;;;15.80;99.90;;;;;;5090703;28;20044;-47
2023/05/02 09:52:30;;;;;;;10.57;3.28;;;16.00;99.90;;;;;;5086052;28;20048;-47
2023/05/02 09:54:56;;;;;;;4.15;2.97;;;16.10;99.90;;;;;;5080031;28;20044;-47
2023/05/02 09:57:38;;;;;;;;;;;15.90;99.90;;;;;;5091225;28;20083;-48
2023/05/02 10:00:05;;;;;;;6.80;3.00;;;15.80;99.90;;;;;;5091229;28;19924;-46
2023/05/02 10:02:39;;;;;;;4.30;3.25;;;15.80;99.90;;;;;;5085821;28;20044;-47
2023/05/02 10:05:09;;;;;;;5.95;2.95;;;15.60;99.90;;;;;;5092782;28;20119;-46
2023/05/02 10:07:36;;;;;;;4.22;3.28;;;15.40;99.90;;;;;;5094511;28;20044;-47
2023/05/02 10:10:05;;;;;;;3.67;3.10;;;15.20;99.90;;;;;;5093495;28;20074;-44
2023/05/02 10:12:32;;;;;;;4.80;3.13;;;15.20;99.90;;;;;;5088545;28;20064;-45
2023/05/02 10:15:03;;;;;;;6.57;3.50;;;15.50;99.90;;;;;;5091903;28;20048;-45
2023/05/02 10:17:49;;;;;;;3.90;3.13;;;15.70;99.90;;;;;;5094147;28;20044;-45
2023/05/02 10:20:25;;;;;;;3.95;3.00;;;15.70;99.90;;;;;;5090044;28;20036;-45
2023/05/02 10:22:53;;;;;;;7.10;3.08;;;15.50;99.90;;;;;;5085806;28;20047;-45
2023/05/02 10:25:20;;;;;;;4.72;3.63;;;15.60;99.90;;;;;;5094331;28;20492;-46
2023/05/02 10:27:47;;;;;;;6.35;3.10;;;15.60;99.90;;;;;;5093961;28;20496;-45
2023/05/02 10:30:14;;;;;;;4.00;2.97;;;15.60;99.90;;;;;;5087278;28;20040;-45
2023/05/02 10:32:43;;;;;;;5.93;3.42;;;15.60;99.90;;;;;;5085269;28;20078;-47
2023/05/02 10:35:12;;;;;;;3.58;2.60;;;15.50;99.90;;;;;;5094524;28;20131;-47
2023/05/02 10:37:40;;;;;;;3.42;2.40;;;15.40;99.90;;;;;;5093935;28;20102;-46
2023/05/02 10:40:12;;;;;;;5.18;3.38;;;15.40;99.90;;;;;;5086246;28;20055;-45
2023/05/02 10:42:44;;;;;;;3.90;2.80;;;15.30;99.90;;;;;;5085163;28;20046;-45
2023/05/02 10:45:28;;;;;;;5.18;2.80;;;15.30;99.90;;;;;;5094025;28;20055;-46
2023/05/02 10:48:17;;;;;;;3.75;3.03;;;15.20;99.90;;;;;;5093553;28;20528;-46
2023/05/02 10:50:56;;;;;;;3.95;2.63;;;15.20;99.90;;;;;;5081477;28;20428;-46
2023/05/02 10:53:28;;;;;;;5.03;2.72;;;15.00;99.90;;;;;;5073471;28;20049;-45
2023/05/02 10:56:20;;;;;;;5.28;3.15;;;14.90;99.90;;;;;;5073593;28;20447;-46
2023/05/02 10:58:49;;;;;;;3.17;2.60;;;14.70;99.90;;;;;;5081160;28;20044;-45
2023/05/02 11:01:28;;;;;;;3.40;2.95;;;14.50;99.90;;;;;;5093350;28;20043;-46
2023/05/02 11:04:01;;;;;;;4.20;3.08;;;14.40;99.90;;;;;;5093531;28;20539;-46
2023/05/02 11:06:29;;;;;;;4.40;3.17;;;14.30;99.90;;;;;;5085192;28;20071;-45
2023/05/02 11:09:28;;;;;;;5.45;3.38;;;14.20;99.90;;;;;;5090018;28;20054;-46
2023/05/02 11:11:56;;;;;;;4.40;3.13;;;14.10;99.90;;;;;;5092571;28;20483;-45
2023/05/02 11:14:26;;;;;;;4.10;2.85;;;14.10;99.90;;;;;;5089187;28;20057;-46
2023/05/02 11:17:05;;;;;;;7.28;4.05;;;14.10;99.90;;;;;;5084498;28;20040;-46
2023/05/02 11:19:37;;;;;;;5.35;3.13;;;14.10;99.90;;;;;;5092867;28;20075;-46
2023/05/02 11:22:19;;;;;;;3.95;3.17;;;14.10;99.90;;;;;;5092739;28;20043;-45
2023/05/02 11:24:48;;;;;;;4.03;3.45;;;14.60;99.90;;;;;;5087528;28;20396;-45
2023/05/02 11:27:37;;;;;;;4.57;3.53;;;14.10;99.90;;;;;;5084425;28;20051;-46
2023/05/02 11:30:05;;;;;;;6.20;3.92;;;14.10;99.90;;;;;;5083201;28;20066;-45
2023/05/02 11:32:44;;;;;;;5.38;3.97;;;14.10;99.90;;;;;;5087753;28;20046;-45
2023/05/02 11:35:18;;;;;;;6.30;4.47;;;14.00;99.90;;;;;;5083599;28;20937;-45
2023/05/02 11:37:55;;;;;;;6.68;4.10;;;13.80;99.90;;;;;;5092773;28;20052;-45
2023/05/02 11:40:23;;;;;;;7.30;4.80;;;13.60;99.90;;;;;;5089558;28;20158;-45
2023/05/02 11:42:50;;;;;;;6.65;4.47;;;13.60;99.90;;;;;;5083849;28;20085;-45
2023/05/02 11:45:17;;;;;;;6.80;5.22;;;13.50;99.90;;;;;;5092722;28;20518;-45
2023/05/02 11:47:47;;;;;;;7.45;4.53;;;13.60;99.90;;;;;;5092599;28;20093;-45
2023/05/02 11:50:14;;;;;;;9.32;5.75;;;13.70;99.90;;;;;;5088029;28;20043;-49
2023/05/02 11:52:43;;;;;;;14.25;6.07;;;13.60;99.90;;;;;;5083977;28;20043;-45
2023/05/02 11:55:12;;;;;;;6.70;5.10;;;13.60;99.90;;;;;;5092531;28;20493;-45
2023/05/02 11:57:39;;;;;;;9.50;4.22;;;13.50;99.90;;;;;;5092245;28;20131;-45
2023/05/02 12:00:12;;;;;;;;;;;13.50;99.90;;;;;;5085806;28;20045;-45
2023/05/02 12:02:44;;;;;;;6.82;4.57;;;13.50;99.90;;;;;;5083584;28;19919;-45
2023/05/02 12:05:13;;;;;;;9.77;5.40;;;13.50;99.90;;;;;;5092365;28;20040;-46
2023/05/02 12:07:43;;;;;;;5.32;4.45;;;13.60;99.90;;;;;;5092198;28;20058;-45
2023/05/02 12:10:11;;;;;;;7.18;4.95;;;13.50;99.90;;;;;;5087818;28;20110;-46
2023/05/02 12:12:39;;;;;;;9.60;5.05;;;13.50;99.90;;;;;;5086837;28;20400;-45
2023/05/02 12:15:08;;;;;;;9.60;5.05;;;13.40;99.90;;;;;;5092124;28;20051;-45
2023/05/02 12:17:40;;;;;;;7.47;5.25;;;13.20;99.90;;;;;;5091822;28;20082;-48
2023/05/02 12:20:09;;;;;;;6.68;4.50;;;13.20;99.90;;;;;;5070955;28;20381;-45
2023/05/02 12:22:36;;;;;;;5.60;4.35;;;13.20;99.90;;;;;;5085947;28;20059;-44
2023/05/02 12:25:04;;;;;;;;;;;12.80;99.90;;;;;;5091583;28;20071;-45
2023/05/02 12:27:32;;;;;;;7.25;5.35;;;12.70;99.90;;;;;;5089088;28;19927;-45
2023/05/02 12:29:59;;;;;;;7.95;5.68;;;12.50;99.90;;;;;;5080420;28;20036;-48
2023/05/02 12:32:30;;;;;;;;;;;12.20;99.90;;;;;;5092203;28;20561;-48
2023/05/02 12:34:57;;;;;;;8.10;5.13;;;12.20;99.90;;;;;;5091876;28;20011;-45
2023/05/02 12:37:25;;;;;;;6.45;5.28;;;12.10;99.90;;;;;;5087976;28;20060;-49
2023/05/02 12:39:54;;;;;;;7.28;5.32;;;12.10;99.90;;;;;;5080027;28;20040;-45
2023/05/02 12:42:23;;;;;;;8.00;5.38;;;12.10;99.90;;;;;;5091467;28;20082;-47
2023/05/02 12:44:51;;;;;;;11.10;5.65;;;12.30;99.90;;;;;;5091864;28;20450;-45
2023/05/02 12:47:21;;;;;;;8.65;5.55;;;12.50;99.90;;;;;;5080052;28;20094;-45
2023/05/02 12:49:53;;;;;;;6.03;4.47;;;12.40;99.90;;;;;;5087013;28;20381;-47
2023/05/02 12:52:39;;;;;;;8.23;5.15;;;12.40;99.90;;;;;;5091501;28;20044;-45
2023/05/02 12:55:19;;;;;;;13.50;8.57;;;12.40;99.90;;;;;;5086847;28;20072;-46
2023/05/02 12:57:46;;;;;;;10.98;7.50;;;12.70;99.90;;;;;;5087003;28;20078;-45
2023/05/02 13:00:15;;;;;;;9.50;6.32;;;12.90;99.90;;;;;;5091137;28;20078;-45
2023/05/02 13:02:43;;;;;;;10.65;6.18;;;13.10;99.90;;;;;;5087913;28;20524;-46
2023/05/02 13:05:17;;;;;;;8.25;6.03;;;13.10;99.90;;;;;;5081939;28;20043;-46
2023/05/02 13:07:44;;;;;;;9.82;6.30;;;13.20;99.90;;;;;;5091412;28;20043;-45
2023/05/02 13:10:12;;;;;;;8.55;6.05;;;13.30;99.90;;;;;;5091005;28;20083;-46